Main page
METAR-TAF:

METAR-TAF

Airports :

Granada, Spain

Federico García Lorca Airport

latitude: 37-11N, longitude: 003-47W, elevation: 567 m

Current weather observation

The report was made 23 minutes ago, at 04:30 UTC
Calm wind
Temperature 13°C
Humidity 54%
Pressure 1015 hPa
Visibility 10 km or more
no clouds below 1500 m and no cumulonimbus

METAR: LEGR 220430Z 00000KT CAVOK 13/04 Q1015

Time: 06:53 (04:53 UTC)

Forecast

The report was made 2 hours and 53 minutes ago, at 02:00 UTC
Forecast valid from 22 at 03 UTC to 23 at 03 UTC
Wind 2 kt from variable directions
Visibility 10 km or more
no clouds below 1500 m and no cumulonimbus

TAF: LEGR 220200Z 2203/2303 VRB02KT CAVOK TX37/2215Z TN13/2205Z

Weather observations and forecasts of more than 4000 airports (METAR and TAF reports).

The available stations are represented by yellow and red dots on the map.

Hover mouse over dot to see the name of the station.

Then click to see weather observations and forecasts.

To change the map : click on the green buttons with a black cross to zoom in, on the green button with a dash to zoom out, or on the green arrows for adjacent maps.


METAR-TAF: